Check out our new BloomSky Weather System.

Active alerts

Fort Bend, TX
  Details for Fort Bend, TX River Flood Warning  +1 additional alert
Houston, TX
  Details for Houston, TX Wind Advisory
Galveston, TX
  Details for Galveston, TX Wind Advisory


Thunder radar  blitzortung!


Rain radar more information rain snow radar


Visit our other weather sites:

Template documentation
and downloads

And another site



Weather Underground History page Text

Daily Summary for February 2, 2018 Units:  Metric    English   Both
« Previous Day
Next Day »
Daily Weekly Monthly Yearly Custom
  High: Low: Average:
Temperature: -17.8 °C 8.9 °C 11.9 °C
Dew Point: -17.8 °C -1.3 °C 2.8 °C
Humidity: Humidity % 43 % 54 %
Wind Speed: 0 km/h 0 km/h 5.1 km/h
Wind Gust: 0 km/h - -
Wind:- - SSE
Pressure: 0 hPa 1022.2 hPa -
Precipitation: 0 mm    
Historical Graphs
 
 
Tabular Data for February 2, 2018
Time Temperature Dew Point Pressure Wind Wind Speed Wind Gust Humidity Rainfall Rate (Hourly)
-17.8 °C -17.8 °C 0 hPa Calm     Humidity % 0 mm
00:03 15.8 °C 10.1 °C 1022.2 hPa NNW 4.8 km/h 8 km/h 69 % 0 mm
00:08 15.9 °C 10.4 °C 1022.2 hPa North 8 km/h 9.7 km/h 70 % 0 mm
00:13 16 °C 10.5 °C 1022.2 hPa NNW 8 km/h 11.3 km/h 70 % 0 mm
00:18 16.1 °C 10.8 °C 1022.2 hPa NNW 8 km/h 12.9 km/h 71 % 0 mm
00:23 16.2 °C 10.9 °C 1022.2 hPa North 1.6 km/h 12.9 km/h 71 % 0 mm
00:28 16.2 °C 11.1 °C 1022.2 hPa NNE 3.2 km/h 14.5 km/h 72 % 0 mm
00:33 16.2 °C 11.4 °C 1022.2 hPa NNE 14.5 km/h 16.1 km/h 73 % 0 mm
00:38 16.2 °C 11.4 °C 1022.6 hPa NNE 12.9 km/h 16.1 km/h 73 % 0 mm
00:43 16.1 °C 11.5 °C 1022.6 hPa North 11.3 km/h 17.7 km/h 74 % 0 mm
00:48 16.1 °C 11.7 °C 1022.6 hPa East 1.6 km/h 19.3 km/h 75 % 0 mm
00:53 16 °C 11.6 °C 1022.6 hPa North 6.4 km/h 19.3 km/h 75 % 0 mm
00:58 15.9 °C 11.7 °C 1022.9 hPa West 3.2 km/h 19.3 km/h 76 % 0 mm
01:03 15.8 °C 11.6 °C 1022.9 hPa NW 11.3 km/h 19.3 km/h 76 % 0 mm
01:08 15.7 °C 11.7 °C 1023.2 hPa NW 3.2 km/h 20.9 km/h 77 % 0 mm
01:13 15.7 °C 11.7 °C 1023.2 hPa North 6.4 km/h 20.9 km/h 77 % 0 mm
01:18 15.6 °C 11.6 °C 1023.2 hPa NNW 1.6 km/h 20.9 km/h 77 % 0 mm
01:23 15.6 °C 11.8 °C 1023.6 hPa NW 17.7 km/h 17.7 km/h 78 % 0 mm
01:28 15.4 °C 11.6 °C 1023.6 hPa ENE 9.7 km/h 20.9 km/h 78 % 0 mm
01:33 15.4 °C 11.6 °C 1023.6 hPa NNW 6.4 km/h 22.5 km/h 78 % 0 mm
01:38 15.3 °C 11.7 °C 1023.6 hPa NNE 8 km/h 25.7 km/h 79 % 0 mm
01:43 15.3 °C 11.7 °C 1023.9 hPa West 4.8 km/h 25.7 km/h 79 % 0 mm
01:48 15.2 °C 11.6 °C 1023.9 hPa East 9.7 km/h 25.7 km/h 79 % 0 mm
01:53 15.1 °C 11.5 °C 1023.9 hPa NNW 9.7 km/h 22.5 km/h 79 % 0 mm
01:58 15.1 °C 11.5 °C 1023.9 hPa NNW 12.9 km/h 19.3 km/h 79 % 0 mm
02:03 15 °C 11.4 °C 1023.9 hPa NNW 4.8 km/h 22.5 km/h 79 % 0 mm
02:08 14.9 °C 11.3 °C 1023.9 hPa NNE 8 km/h 22.5 km/h 79 % 0 mm
02:13 14.8 °C 11 °C 1023.9 hPa North 6.4 km/h 27.4 km/h 78 % 0 mm
02:18 14.6 °C 10.6 °C 1024.3 hPa SW 6.4 km/h 27.4 km/h 77 % 0 mm
02:23 14.4 °C 10.2 °C 1024.3 hPa NNW 6.4 km/h 27.4 km/h 76 % 0 mm
02:28 14.2 °C 10 °C 1024.3 hPa NNW 17.7 km/h 27.4 km/h 76 % 0 mm
02:33 14.1 °C 9.7 °C 1024.3 hPa NNE 6.4 km/h 27.4 km/h 75 % 0 mm
02:38 13.9 °C 9.5 °C 1024.3 hPa North 3.2 km/h 27.4 km/h 75 % 0 mm
02:43 13.8 °C 9.2 °C 1024.3 hPa NNW 11.3 km/h 24.1 km/h 74 % 0 mm
02:48 13.6 °C 8.9 °C 1024.3 hPa North 3.2 km/h 22.5 km/h 73 % 0 mm
02:53 13.5 °C 8.6 °C 1024.6 hPa NNW 4.8 km/h 22.5 km/h 72 % 0 mm
02:58 13.3 °C 7.9 °C 1024.6 hPa WNW 12.9 km/h 22.5 km/h 70 % 0 mm
03:03 13.2 °C 7.8 °C 1024.9 hPa NNW 14.5 km/h 24.1 km/h 70 % 0 mm
03:08 13.1 °C 7.5 °C 1024.9 hPa NW 11.3 km/h 24.1 km/h 69 % 0 mm
03:14 13.1 °C 7.3 °C 1024.9 hPa NNE 4.8 km/h 24.1 km/h 68 % 0 mm
03:19 12.9 °C 7.1 °C 1024.9 hPa NNE 8 km/h 24.1 km/h 68 % 0 mm
03:24 12.8 °C 6.6 °C 1024.9 hPa North 11.3 km/h 22.5 km/h 66 % 0 mm
03:29 12.7 °C 6.3 °C 1024.9 hPa North 11.3 km/h 22.5 km/h 65 % 0 mm
03:34 12.7 °C 6.3 °C 1024.9 hPa East 9.7 km/h 22.5 km/h 65 % 0 mm
03:39 12.6 °C 6 °C 1024.9 hPa NNE 11.3 km/h 25.7 km/h 64 % 0 mm
03:44 12.6 °C 5.7 °C 1024.9 hPa NW 8 km/h 25.7 km/h 63 % 0 mm
03:49 12.5 °C 5.6 °C 1024.9 hPa NE 3.2 km/h 25.7 km/h 63 % 0 mm
03:54 12.4 °C 5.6 °C 1025.3 hPa North 9.7 km/h 25.7 km/h 63 % 0 mm
03:59 12.4 °C 5.3 °C 1025.3 hPa North 4.8 km/h 25.7 km/h 62 % 0 mm
04:04 12.4 °C 5.3 °C 1025.3 hPa NNW 6.4 km/h 25.7 km/h 62 % 0 mm
04:09 12.4 °C 5.3 °C 1025.3 hPa NNW 8 km/h 25.7 km/h 62 % 0 mm
04:14 12.3 °C 5 °C 1025.3 hPa NNE 11.3 km/h 25.7 km/h 61 % 0 mm
04:19 12.2 °C 4.4 °C 1025.3 hPa North 12.9 km/h 22.5 km/h 59 % 0 mm
04:24 12.1 °C 4.3 °C 1025.6 hPa NNW 8 km/h 24.1 km/h 59 % 0 mm
04:29 12 °C 4 °C 1025.6 hPa South 4.8 km/h 24.1 km/h 58 % 0 mm
04:34 11.9 °C 3.9 °C 1025.6 hPa NNE 11.3 km/h 24.1 km/h 58 % 0 mm
04:39 11.8 °C 3.6 °C 1025.6 hPa North 3.2 km/h 22.5 km/h 57 % 0 mm
04:44 11.8 °C 3.8 °C 1026 hPa NE 11.3 km/h 22.5 km/h 58 % 0 mm
04:49 11.7 °C 3.5 °C 1026 hPa North 6.4 km/h 22.5 km/h 57 % 0 mm
04:54 11.7 °C 3.5 °C 1026 hPa NNE 3.2 km/h 19.3 km/h 57 % 0 mm
04:59 11.6 °C 3.4 °C 1026 hPa NNE 4.8 km/h 19.3 km/h 57 % 0 mm
05:04 11.6 °C 3.4 °C 1026 hPa West 6.4 km/h 19.3 km/h 57 % 0 mm
05:09 11.5 °C 3 °C 1026 hPa NE 6.4 km/h 19.3 km/h 56 % 0 mm
05:14 11.5 °C 3 °C 1026.3 hPa NE 1.6 km/h 25.7 km/h 56 % 0 mm
05:19 11.5 °C 3 °C 1026.3 hPa ENE 9.7 km/h 25.7 km/h 56 % 0 mm
05:24 11.4 °C 2.9 °C 1026.3 hPa NW 3.2 km/h 25.7 km/h 56 % 0 mm
05:29 11.4 °C 2.9 °C 1026.6 hPa NNE 12.9 km/h 24.1 km/h 56 % 0 mm
05:34 11.4 °C 2.9 °C 1026.6 hPa NNE 9.7 km/h 24.1 km/h 56 % 0 mm
05:39 11.4 °C 2.7 °C 1026.6 hPa North 12.9 km/h 20.9 km/h 55 % 0 mm
05:44 11.4 °C 2.9 °C 1026.6 hPa ENE 4.8 km/h 20.9 km/h 56 % 0 mm
05:49 11.3 °C 2.8 °C 1026.6 hPa NNE 12.9 km/h 20.9 km/h 56 % 0 mm
05:54 11.3 °C 2.6 °C 1027 hPa North 6.4 km/h 20.9 km/h 55 % 0 mm
05:59 11.3 °C 2.6 °C 1027 hPa North 14.5 km/h 20.9 km/h 55 % 0 mm
06:04 11.2 °C 2.5 °C 1027 hPa ENE 6.4 km/h 20.9 km/h 55 % 0 mm
06:09 11.2 °C 2.5 °C 1027 hPa Calm   20.9 km/h 55 % 0 mm
06:14 11.2 °C 2.5 °C 1027.3 hPa NE 6.4 km/h 19.3 km/h 55 % 0 mm
06:19 11.2 °C 2.5 °C 1027.3 hPa NNE 4.8 km/h 20.9 km/h 55 % 0 mm
06:24 11.2 °C 2.5 °C 1027.3 hPa NNE 6.4 km/h 20.9 km/h 55 % 0 mm
06:29 11.2 °C 2.5 °C 1027.7 hPa East 3.2 km/h 20.9 km/h 55 % 0 mm
06:34 11.1 °C 2.1 °C 1027.7 hPa North 6.4 km/h 17.7 km/h 54 % 0 mm
06:39 11.1 °C 2.4 °C 1027.7 hPa NW 3.2 km/h 17.7 km/h 55 % 0 mm
06:44 11.1 °C 2.4 °C 1027.7 hPa NNW 6.4 km/h 17.7 km/h 55 % 0 mm
06:49 11.1 °C 2.1 °C 1027.7 hPa North 12.9 km/h 17.7 km/h 54 % 0 mm
06:54 11 °C 2.3 °C 1027.7 hPa NW 1.6 km/h 19.3 km/h 55 % 0 mm
06:59 11 °C 2.3 °C 1028 hPa ENE 9.7 km/h 19.3 km/h 55 % 0 mm
07:04 11 °C 2.3 °C 1028 hPa NW 8 km/h 19.3 km/h 55 % 0 mm
07:09 10.9 °C 2.2 °C 1028 hPa ENE 3.2 km/h 17.7 km/h 55 % 0 mm
07:14 10.9 °C 2.2 °C 1028 hPa North 8 km/h 19.3 km/h 55 % 0 mm
07:19 10.9 °C 2.2 °C 1028.3 hPa NNE 9.7 km/h 19.3 km/h 55 % 0 mm
07:24 10.9 °C 2.2 °C 1028.3 hPa West 1.6 km/h 19.3 km/h 55 % 0 mm
07:29 10.9 °C 2 °C 1028.3 hPa NNW 3.2 km/h 19.3 km/h 54 % 0 mm
07:34 10.9 °C 2 °C 1028.7 hPa WNW 6.4 km/h 19.3 km/h 54 % 0 mm
07:39 10.9 °C 2 °C 1028.7 hPa NW 1.6 km/h 19.3 km/h 54 % 0 mm
07:40 10.8 °C 1.9 °C 1028.7 hPa NNW 8 km/h 16.1 km/h 54 % 0 mm
07:45 10.9 °C 2.2 °C 1028.7 hPa North 4.8 km/h 16.1 km/h 55 % 0 mm
07:50 10.9 °C 2 °C 1028.7 hPa ESE 4.8 km/h 17.7 km/h 54 % 0 mm
07:55 10.9 °C 2 °C 1028.7 hPa NE 4.8 km/h 17.7 km/h 54 % 0 mm
08:00 10.8 °C 1.9 °C 1028.7 hPa NNE 9.7 km/h 20.9 km/h 54 % 0 mm
08:05 10.8 °C 1.9 °C 1028.7 hPa WNW 1.6 km/h 20.9 km/h 54 % 0 mm
08:10 10.8 °C 1.9 °C 1029 hPa WNW 4.8 km/h 20.9 km/h 54 % 0 mm
08:15 10.8 °C 1.9 °C 1029 hPa NE 11.3 km/h 19.3 km/h 54 % 0 mm
08:20 10.8 °C 2.1 °C 1029 hPa ENE 4.8 km/h 19.3 km/h 55 % 0 mm
08:25 10.7 °C 1.8 °C 1029.3 hPa NNE 16.1 km/h 17.7 km/h 54 % 0 mm
08:30 10.8 °C 1.9 °C 1029.3 hPa North 11.3 km/h 17.7 km/h 54 % 0 mm
08:35 10.8 °C 1.9 °C 1029.3 hPa NW 3.2 km/h 19.3 km/h 54 % 0 mm
08:40 10.9 °C 2.2 °C 1029.3 hPa NNE 6.4 km/h 19.3 km/h 55 % 0 mm
08:45 10.9 °C 2 °C 1029.3 hPa North 4.8 km/h 19.3 km/h 54 % 0 mm
08:50 10.9 °C 2 °C 1029.7 hPa ENE 1.6 km/h 17.7 km/h 54 % 0 mm
08:55 10.9 °C 2 °C 1029.7 hPa NNW 4.8 km/h 17.7 km/h 54 % 0 mm
09:00 10.9 °C 2 °C 1029.7 hPa NNW 9.7 km/h 24.1 km/h 54 % 0 mm
09:05 10.9 °C 2 °C 1029.7 hPa NNW 1.6 km/h 24.1 km/h 54 % 0 mm
09:10 10.9 °C 2 °C 1029.7 hPa NE 11.3 km/h 24.1 km/h 54 % 0 mm
09:15 10.9 °C 2 °C 1030 hPa NW 1.6 km/h 20.9 km/h 54 % 0 mm
09:20 10.9 °C 2 °C 1030 hPa SE 4.8 km/h 19.3 km/h 54 % 0 mm
09:25 11.1 °C 2.4 °C 1030 hPa Calm   19.3 km/h 55 % 0 mm
09:30 11.2 °C 2.2 °C 1030 hPa North 6.4 km/h 19.3 km/h 54 % 0 mm
09:35 11.2 °C 2 °C 1030.4 hPa NNE 3.2 km/h 16.1 km/h 53 % 0 mm
09:40 11.1 °C 2.1 °C 1030.4 hPa NNE 4.8 km/h 16.1 km/h 54 % 0 mm
09:45 11 °C 2 °C 1030.4 hPa NNW 4.8 km/h 16.1 km/h 54 % 0 mm
09:50 11 °C 2.3 °C 1030.4 hPa North 3.2 km/h 16.1 km/h 55 % 0 mm
09:55 11 °C 2.3 °C 1030.4 hPa NE 3.2 km/h 16.1 km/h 55 % 0 mm
10:00 11.1 °C 2.4 °C 1030.4 hPa NW 4.8 km/h 12.9 km/h 55 % 0 mm
10:05 11 °C 2.3 °C 1030.4 hPa ENE 4.8 km/h 12.9 km/h 55 % 0 mm
10:06 11 °C 2.3 °C 1030.4 hPa NNW 8 km/h 12.9 km/h 55 % 0 mm
10:11 11 °C 2 °C 1030.7 hPa NE 11.3 km/h 14.5 km/h 54 % 0 mm
10:16 11 °C 2.3 °C 1030.7 hPa ENE 4.8 km/h 14.5 km/h 55 % 0 mm
10:21 11.1 °C 2.1 °C 1030.7 hPa North 11.3 km/h 16.1 km/h 54 % 0 mm
10:26 11.1 °C 2.4 °C 1030.7 hPa NNE 3.2 km/h 16.1 km/h 55 % 0 mm
10:31 11.3 °C 2.3 °C 1030.7 hPa NNE 9.7 km/h 16.1 km/h 54 % 0 mm
10:36 11.4 °C 2.7 °C 1030.7 hPa NE 4.8 km/h 11.3 km/h 55 % 0 mm
10:41 11.6 °C 2.6 °C 1030.7 hPa NNE 6.4 km/h 11.3 km/h 54 % 0 mm
10:46 11.8 °C 2.5 °C 1030.7 hPa North 4.8 km/h 14.5 km/h 53 % 0 mm
10:51 11.8 °C 2 °C 1030.7 hPa ENE 12.9 km/h 14.5 km/h 51 % 0 mm
10:56 11.9 °C 2.4 °C 1030.7 hPa North 3.2 km/h 17.7 km/h 52 % 0 mm
11:01 12.1 °C 2.5 °C 1030.7 hPa NNW 6.4 km/h 17.7 km/h 52 % 0 mm
11:06 12.4 °C 2.5 °C 1030.7 hPa WNW 1.6 km/h 17.7 km/h 51 % 0 mm
11:11 12.4 °C 2.5 °C 1030.7 hPa Calm   14.5 km/h 51 % 0 mm
11:14 12.4 °C 2.5 °C 1030.4 hPa North 1.6 km/h 14.5 km/h 51 % 0 mm
11:19 12.6 °C 2.2 °C 1030.4 hPa East 4.8 km/h 12.9 km/h 49 % 0 mm
11:24 12.6 °C 2.2 °C 1030.4 hPa East 4.8 km/h 12.9 km/h 49 % 0 mm
11:29 12.8 °C 2.6 °C 1030.4 hPa NE 4.8 km/h 12.9 km/h 50 % 0 mm
11:34 13.2 °C 3 °C 1030.4 hPa North 3.2 km/h 12.9 km/h 50 % 0 mm
11:39 13.3 °C 2.5 °C 1030.4 hPa North 6.4 km/h 12.9 km/h 48 % 0 mm
11:44 13.1 °C 2.6 °C 1030.4 hPa East 6.4 km/h 12.9 km/h 49 % 0 mm
11:49 13 °C 2.8 °C 1030 hPa NE 9.7 km/h 12.9 km/h 50 % 0 mm
11:54 12.9 °C 3 °C 1030 hPa North 4.8 km/h 12.9 km/h 51 % 0 mm
11:59 12.9 °C 2.7 °C 1029.7 hPa NE 4.8 km/h 11.3 km/h 50 % 0 mm
12:04 13 °C 3.1 °C 1029.7 hPa North 3.2 km/h 11.3 km/h 51 % 0 mm
12:09 13.2 °C 3.3 °C 1029.7 hPa Calm   12.9 km/h 51 % 0 mm
12:14 13.6 °C 3.4 °C 1029.7 hPa North 11.3 km/h 12.9 km/h 50 % 0 mm
12:19 13.5 °C 3 °C 1029.7 hPa WSW 4.8 km/h 16.1 km/h 49 % 0 mm
12:24 13.6 °C 3.1 °C 1029.3 hPa NNE 3.2 km/h 16.1 km/h 49 % 0 mm
12:29 13.6 °C 3.1 °C 1029.3 hPa NE 9.7 km/h 17.7 km/h 49 % 0 mm
12:34 13.7 °C 2.9 °C 1029.3 hPa NNE 9.7 km/h 19.3 km/h 48 % 0 mm
12:39 13.6 °C 2.8 °C 1029.3 hPa North 11.3 km/h 19.3 km/h 48 % 0 mm
12:44 13.6 °C 3.1 °C 1029.3 hPa ENE 8 km/h 19.3 km/h 49 % 0 mm
12:49 13.6 °C 2.8 °C 1029.3 hPa NW 3.2 km/h 14.5 km/h 48 % 0 mm
12:54 13.4 °C 2.9 °C 1029 hPa NW 3.2 km/h 14.5 km/h 49 % 0 mm
12:59 13.3 °C 3.1 °C 1029 hPa NNE 4.8 km/h 14.5 km/h 50 % 0 mm
13:04 13.3 °C 3.1 °C 1028.7 hPa Calm   14.5 km/h 50 % 0 mm
13:09 13.4 °C 3.2 °C 1028.7 hPa North 4.8 km/h 14.5 km/h 50 % 0 mm
13:14 13.9 °C 3.4 °C 1028.7 hPa NNE 14.5 km/h 14.5 km/h 49 % 0 mm
13:19 14.2 °C 3 °C 1028.7 hPa North 6.4 km/h 16.1 km/h 47 % 0 mm
13:24 14.3 °C 2.8 °C 1028.7 hPa NE 6.4 km/h 16.1 km/h 46 % 0 mm
13:29 14 °C 2.9 °C 1028.3 hPa NNE 6.4 km/h 16.1 km/h 47 % 0 mm
13:34 14 °C 2.9 °C 1028.3 hPa NW 4.8 km/h 16.1 km/h 47 % 0 mm
13:39 14.2 °C 3 °C 1028.3 hPa ENE 6.4 km/h 19.3 km/h 47 % 0 mm
13:44 14.4 °C 2.9 °C 1028 hPa NNE 8 km/h 19.3 km/h 46 % 0 mm
13:49 14.5 °C 3 °C 1028 hPa East 4.8 km/h 19.3 km/h 46 % 0 mm
13:54 14.7 °C 3.2 °C 1028 hPa North 11.3 km/h 16.1 km/h 46 % 0 mm
13:59 14.4 °C 2.9 °C 1028 hPa North 9.7 km/h 16.1 km/h 46 % 0 mm
14:04 14.2 °C 2.7 °C 1028 hPa NE 6.4 km/h 20.9 km/h 46 % 0 mm
14:09 14.1 °C 3.3 °C 1028 hPa ENE 8 km/h 20.9 km/h 48 % 0 mm
14:14 14.2 °C 3 °C 1028 hPa WNW 6.4 km/h 20.9 km/h 47 % 0 mm
14:19 14.2 °C 2.7 °C 1028 hPa NNW 4.8 km/h 14.5 km/h 46 % 0 mm
14:24 14.1 °C 3 °C 1028 hPa NNE 8 km/h 14.5 km/h 47 % 0 mm
14:29 13.8 °C 2.7 °C 1028 hPa NNW 6.4 km/h 14.5 km/h 47 % 0 mm
14:34 13.7 °C 2.9 °C 1028 hPa NW 6.4 km/h 17.7 km/h 48 % 0 mm
14:39 13.6 °C 3.1 °C 1028 hPa NNE 8 km/h 17.7 km/h 49 % 0 mm
14:44 13.6 °C 2.8 °C 1028 hPa ESE 3.2 km/h 17.7 km/h 48 % 0 mm
14:49 13.4 °C 2.6 °C 1028 hPa NNW 3.2 km/h 16.1 km/h 48 % 0 mm
14:54 13.3 °C 2.5 °C 1028 hPa NNW 9.7 km/h 14.5 km/h 48 % 0 mm
14:59 13.2 °C 2.4 °C 1028 hPa North 11.3 km/h 16.1 km/h 48 % 0 mm
15:04 13.1 °C 2.6 °C 1028 hPa North 3.2 km/h 16.1 km/h 49 % 0 mm
15:09 13 °C 2.2 °C 1028 hPa NNW 4.8 km/h 16.1 km/h 48 % 0 mm
15:14 13 °C 2.2 °C 1028 hPa North 1.6 km/h 14.5 km/h 48 % 0 mm
15:19 13 °C 2.2 °C 1028 hPa NNE 11.3 km/h 16.1 km/h 48 % 0 mm
15:24 12.9 °C 2.2 °C 1027.7 hPa North 3.2 km/h 16.1 km/h 48 % 0 mm
15:29 12.9 °C 2.2 °C 1027.7 hPa East 6.4 km/h 16.1 km/h 48 % 0 mm
15:34 13 °C 1.9 °C 1027.7 hPa North 4.8 km/h 14.5 km/h 47 % 0 mm
15:39 13.1 °C 1.7 °C 1027.7 hPa NNW 3.2 km/h 14.5 km/h 46 % 0 mm
15:44 13 °C 1.6 °C 1027.7 hPa North 3.2 km/h 12.9 km/h 46 % 0 mm
15:49 13 °C 1.6 °C 1027.7 hPa Calm   12.9 km/h 46 % 0 mm
15:54 12.9 °C 1.6 °C 1027.7 hPa North 4.8 km/h 12.9 km/h 46 % 0 mm
15:59 12.9 °C 1.2 °C 1027.7 hPa ENE 6.4 km/h 12.9 km/h 45 % 0 mm
16:04 12.9 °C 1.6 °C 1027.7 hPa ENE 8 km/h 12.9 km/h 46 % 0 mm
16:09 12.8 °C 1.8 °C 1027.7 hPa Calm   12.9 km/h 47 % 0 mm
16:14 12.7 °C 1.7 °C 1027.7 hPa NNW 1.6 km/h 12.9 km/h 47 % 0 mm
16:19 12.6 °C 1.3 °C 1027.7 hPa NNW 1.6 km/h 12.9 km/h 46 % 0 mm
16:24 12.6 °C 1 °C 1027.7 hPa NNE 4.8 km/h 12.9 km/h 45 % 0 mm
16:29 12.6 °C 1.3 °C 1027.7 hPa Calm   12.9 km/h 46 % 0 mm
16:34 12.5 °C 0.9 °C 1027.7 hPa North 1.6 km/h 14.5 km/h 45 % 0 mm
16:39 12.6 °C 1 °C 1027.7 hPa North 3.2 km/h 14.5 km/h 45 % 0 mm
16:44 12.5 °C 0.9 °C 1027.7 hPa NE 1.6 km/h 14.5 km/h 45 % 0 mm
16:49 12.5 °C 0.9 °C 1027.7 hPa North 1.6 km/h 11.3 km/h 45 % 0 mm
16:55 12.5 °C 0.9 °C 1027.7 hPa North 4.8 km/h 11.3 km/h 45 % 0 mm
17:00 12.5 °C 0.9 °C 1027.7 hPa NNE 1.6 km/h 14.5 km/h 45 % 0 mm
17:04 12.5 °C 0.6 °C 1027.7 hPa Calm   14.5 km/h 44 % 0 mm
17:10 12.5 °C 0.3 °C 1027.7 hPa NNE 4.8 km/h 14.5 km/h 43 % 0 mm
17:15 12.4 °C 0.5 °C 1027.7 hPa NE 1.6 km/h 12.9 km/h 44 % 0 mm
17:20 12.4 °C 0.5 °C 1027.7 hPa Calm   12.9 km/h 44 % 0 mm
17:25 12.4 °C 0.8 °C 1027.7 hPa East 3.2 km/h 12.9 km/h 45 % 0 mm
17:30 12.3 °C 0.4 °C 1027.3 hPa Calm   8 km/h 44 % 0 mm
17:35 12.2 °C 0.3 °C 1027.7 hPa East 1.6 km/h 9.7 km/h 44 % 0 mm
17:40 12.1 °C 0.2 °C 1027.7 hPa NE 4.8 km/h 9.7 km/h 44 % 0 mm
17:45 12 °C 0.1 °C 1027.3 hPa ENE 3.2 km/h 12.9 km/h 44 % 0 mm
17:50 11.9 °C -0.3 °C 1027.3 hPa Calm   12.9 km/h 43 % 0 mm
17:55 11.8 °C -0.4 °C 1027.3 hPa Calm   12.9 km/h 43 % 0 mm
18:00 11.7 °C -0.5 °C 1027.3 hPa NNE 4.8 km/h 11.3 km/h 43 % 0 mm
18:05 11.6 °C -0.2 °C 1027.3 hPa ENE 1.6 km/h 11.3 km/h 44 % 0 mm
18:10 11.4 °C -0.7 °C 1027.3 hPa North 3.2 km/h 12.9 km/h 43 % 0 mm
18:15 11.4 °C -0.7 °C 1027.7 hPa North 3.2 km/h 12.9 km/h 43 % 0 mm
18:20 11.3 °C -0.8 °C 1027.7 hPa Calm   12.9 km/h 43 % 0 mm
18:25 11.3 °C -0.8 °C 1027.7 hPa NNE 1.6 km/h 9.7 km/h 43 % 0 mm
18:30 11.2 °C -0.6 °C 1027.7 hPa Calm   9.7 km/h 44 % 0 mm
18:35 11.2 °C -0.9 °C 1027.7 hPa ENE 4.8 km/h 11.3 km/h 43 % 0 mm
18:40 11.1 °C -1 °C 1027.7 hPa NNE 4.8 km/h 11.3 km/h 43 % 0 mm
18:45 11.1 °C -1 °C 1027.7 hPa NNE 1.6 km/h 11.3 km/h 43 % 0 mm
18:50 11 °C -0.8 °C 1027.7 hPa NE 4.8 km/h 9.7 km/h 44 % 0 mm
18:55 10.9 °C -1.2 °C 1027.7 hPa NE 4.8 km/h 11.3 km/h 43 % 0 mm
19:00 10.9 °C -1.2 °C 1027.7 hPa NE 1.6 km/h 16.1 km/h 43 % 0 mm
19:05 10.9 °C -1.2 °C 1027.7 hPa ENE 4.8 km/h 16.1 km/h 43 % 0 mm
19:10 10.8 °C -1.3 °C 1027.7 hPa NNE 4.8 km/h 16.1 km/h 43 % 0 mm
19:15 10.8 °C -1 °C 1027.7 hPa North 1.6 km/h 9.7 km/h 44 % 0 mm
19:20 10.8 °C -1 °C 1027.7 hPa East 1.6 km/h 9.7 km/h 44 % 0 mm
19:25 10.8 °C -0.7 °C 1027.7 hPa North 3.2 km/h 8 km/h 45 % 0 mm
19:30 10.8 °C -0.7 °C 1027.7 hPa ENE 1.6 km/h 9.7 km/h 45 % 0 mm
19:35 10.8 °C -1 °C 1027.7 hPa NE 1.6 km/h 9.7 km/h 44 % 0 mm
19:40 10.7 °C -0.8 °C 1027.7 hPa NNE 3.2 km/h 9.7 km/h 45 % 0 mm
19:45 10.7 °C -0.8 °C 1027.7 hPa NE 1.6 km/h 9.7 km/h 45 % 0 mm
19:50 10.7 °C -0.8 °C 1027.7 hPa NW 3.2 km/h 8 km/h 45 % 0 mm
19:55 10.7 °C -0.8 °C 1027.7 hPa NNW 1.6 km/h 8 km/h 45 % 0 mm
20:00 10.6 °C -0.8 °C 1027.7 hPa East 3.2 km/h 8 km/h 45 % 0 mm
20:05 10.6 °C -0.8 °C 1027.7 hPa Calm   8 km/h 45 % 0 mm
20:10 10.6 °C -0.8 °C 1027.7 hPa ENE 4.8 km/h 8 km/h 45 % 0 mm
20:15 10.5 °C -0.9 °C 1027.7 hPa Calm   6.4 km/h 45 % 0 mm
20:20 10.4 °C -1 °C 1027.7 hPa East 3.2 km/h 11.3 km/h 45 % 0 mm
20:25 10.4 °C -1 °C 1027.7 hPa North 1.6 km/h 11.3 km/h 45 % 0 mm
20:30 10.4 °C -1 °C 1027.7 hPa ENE 1.6 km/h 11.3 km/h 45 % 0 mm
20:35 10.3 °C -0.8 °C 1027.7 hPa ENE 1.6 km/h 11.3 km/h 46 % 0 mm
20:40 10.3 °C -1.1 °C 1027.7 hPa NNW 3.2 km/h 9.7 km/h 45 % 0 mm
20:45 10.3 °C -1.1 °C 1027.7 hPa East 6.4 km/h 11.3 km/h 45 % 0 mm
20:50 10.3 °C -0.8 °C 1027.7 hPa NNW 1.6 km/h 11.3 km/h 46 % 0 mm
20:55 10.2 °C -0.9 °C 1027.7 hPa ENE 4.8 km/h 11.3 km/h 46 % 0 mm
21:00 10.2 °C -0.9 °C 1027.7 hPa Calm   9.7 km/h 46 % 0 mm
21:05 10.2 °C -0.6 °C 1027.7 hPa Calm   9.7 km/h 47 % 0 mm
21:10 10.2 °C -0.6 °C 1027.7 hPa NE 1.6 km/h 9.7 km/h 47 % 0 mm
21:15 10.1 °C -0.7 °C 1027.7 hPa ENE 3.2 km/h 4.8 km/h 47 % 0 mm
21:20 10.1 °C -0.7 °C 1027.7 hPa East 3.2 km/h 6.4 km/h 47 % 0 mm
21:25 10 °C -0.5 °C 1027.7 hPa Calm   8 km/h 48 % 0 mm
21:30 9.9 °C -0.6 °C 1027.7 hPa ENE 1.6 km/h 8 km/h 48 % 0 mm
21:35 9.9 °C -0.3 °C 1027.7 hPa NE 3.2 km/h 8 km/h 49 % 0 mm
21:40 9.9 °C -0.3 °C 1027.7 hPa ENE 3.2 km/h 4.8 km/h 49 % 0 mm
21:45 9.8 °C -0.4 °C 1027.7 hPa Calm   8 km/h 49 % 0 mm
21:50 9.8 °C -0.4 °C 1027.7 hPa ENE 3.2 km/h 8 km/h 49 % 0 mm
21:55 9.7 °C -0.5 °C 1027.7 hPa Calm   11.3 km/h 49 % 0 mm
22:00 9.7 °C -0.5 °C 1027.3 hPa NE 1.6 km/h 11.3 km/h 49 % 0 mm
22:05 9.7 °C -0.2 °C 1027.3 hPa Calm   11.3 km/h 50 % 0 mm
22:10 9.6 °C -0.3 °C 1027.3 hPa Calm   8 km/h 50 % 0 mm
22:15 9.5 °C -0.4 °C 1027.3 hPa NE 1.6 km/h 4.8 km/h 50 % 0 mm
22:20 9.4 °C -0.2 °C 1027.3 hPa Calm   4.8 km/h 51 % 0 mm
22:25 9.3 °C -0.3 °C 1027.3 hPa North 1.6 km/h 6.4 km/h 51 % 0 mm
22:30 9.3 °C -0.3 °C 1027.3 hPa Calm   6.4 km/h 51 % 0 mm
22:35 9.2 °C -0.4 °C 1027.3 hPa Calm   6.4 km/h 51 % 0 mm
22:40 9.2 °C -0.1 °C 1027.7 hPa ENE 1.6 km/h 4.8 km/h 52 % 0 mm
22:45 9.1 °C -0.2 °C 1027.3 hPa NNW 1.6 km/h 8 km/h 52 % 0 mm
22:50 9.1 °C -0.2 °C 1027.3 hPa ENE 1.6 km/h 8 km/h 52 % 0 mm
22:55 9.1 °C -0.2 °C 1027.3 hPa NE 3.2 km/h 9.7 km/h 52 % 0 mm
23:00 9.1 °C -0.5 °C 1027.3 hPa NNE 3.2 km/h 11.3 km/h 51 % 0 mm
23:05 9.1 °C -0.5 °C 1027.3 hPa ESE 3.2 km/h 11.3 km/h 51 % 0 mm
23:10 9.1 °C -0.5 °C 1027.3 hPa ESE 3.2 km/h 11.3 km/h 51 % 0 mm
23:15 9.1 °C -0.2 °C 1027.3 hPa Calm   6.4 km/h 52 % 0 mm
23:20 9 °C -0.1 °C 1027 hPa Calm   6.4 km/h 53 % 0 mm
23:25 8.9 °C -0.4 °C 1027.3 hPa North 1.6 km/h 4.8 km/h 52 % 0 mm
23:30 8.9 °C -0.4 °C 1027.3 hPa ESE 1.6 km/h 4.8 km/h 52 % 0 mm
23:35 8.9 °C -0.4 °C 1027 hPa NNW 1.6 km/h 4.8 km/h 52 % 0 mm
23:40 9 °C -0.3 °C 1027 hPa Calm   8 km/h 52 % 0 mm
23:45 9 °C -0.1 °C 1027 hPa Calm   8 km/h 53 % 0 mm
23:50 9 °C -0.1 °C 1026.6 hPa ENE 6.4 km/h 8 km/h 53 % 0 mm
23:55 8.9 °C -0.2 °C 1026.6 hPa North 4.8 km/h 6.4 km/h 53 % 0 mm
Spring, Texas: Villages of Bridgestone
Compliments of Weather Underground - 2.75 mb

Script developed by  Jim McMurry - jmcmurry@mwt.net Adapted for the template by  Wim van der Kuil - Leuven-Template.eu

You find our weather info also at:

UK Metoffice

WeatherCloud

Weather Underground

Mid-South Weather Network

AWEKAS

Citizen Weather Observer Program (CWOP)

HAMweather, WeatherForYou, PWS Weather

Equipment we use:

Weather-station
Davis Vantage Vue

Weather-program
Meteohub

Weather-server
Debian 7.9 x86 (Guest)

Provider
DreamHost

Davis Vantage Vue

Meteohub

Debian 7.9 x86 (Guest)

DreamHost